Terminal Aerodrome Forecast
Issued by NWS Twin Cities, MN

Home | Current Version | Previous Version | Graphics & Text | Print | Product List | Glossary On
Versions: 1 2 3 4 5 6 7 8 9 10 11 12 13 14 15 16
966
FTUS43 KMPX 272330
TAFEAU
TAF
KEAU 272330Z 2800/2824 26007KT P6SM OVC022
     FM280900 26005KT P6SM SCT025 BKN035
     FM281700 31007KT P6SM SCT035=

USA.gov is the U.S. government's official web portal to all federal, state and local government web resources and services.